»·PEaware :: N4657 L71-KSNA

N4657 :: L71-KSNA

FLIGHT INFORMATION

Flight Status: Arrived
Operator: Privately registered:
United States
More flights under this callsign
Pilot: Daniel P. (20187)
Aircraft: PILATUS PC-12 EAGLE
(PC12)
More flights by this aircraft type
Origin: L71 California City Mun
United States
Destination: KSNA John Wayne-Orange Co
United States
More flights between these airports :: More routes between these airports
Route: +JERID LHS V459 SLI
File this flight plan on PilotEdge
Remarks:
Altitude:
(Current/Filed)
120ft
Speed:
(Current/Filed)
200kts
Departed: 11-Oct-18 10:06 AM
Arrived: 11-Oct-18 10:48 AM
Distance/Time
Traveled:
89nm/0:42
Distance/Time
To Go:
Arrived

Flight Plot

Page will automatically refresh every two minutes.

Flight plan parsing failed; only flown route is shown


Map Options




Map Legend


Flown Route
Filed Route
Departure Airport
Arrival Airport
Navaid (VOR, NDB)
Fix

Horizontal Profiles

Position Reports

Time Latitude Longitude Heading Altitude Ground
Speed
11-Oct-18 09:42 35.149764 -118.016197 267 2427ft 0kts
11-Oct-18 09:43 35.149764 -118.016197 267 2427ft 0kts
11-Oct-18 09:44 35.149764 -118.016197 267 2427ft 0kts
11-Oct-18 09:45 35.149764 -118.016197 267 2427ft 0kts
11-Oct-18 09:46 35.149764 -118.016197 267 2427ft 0kts
11-Oct-18 09:47 35.149764 -118.016197 267 2427ft 0kts
11-Oct-18 09:48 35.149764 -118.016197 267 2427ft 0kts
11-Oct-18 09:49 35.149764 -118.016197 267 2427ft 0kts
11-Oct-18 09:50 35.149764 -118.016197 267 2427ft 0kts
11-Oct-18 09:51 35.149764 -118.016197 267 2427ft 0kts
11-Oct-18 09:52 35.149764 -118.016197 267 2427ft 0kts
11-Oct-18 09:55 35.149764 -118.016197 267 2427ft 0kts
11-Oct-18 09:56 35.149764 -118.016197 267 2427ft 0kts
11-Oct-18 09:57 35.149764 -118.016197 267 2427ft 0kts
11-Oct-18 09:58 35.149625 -118.016043 73 2427ft 5kts
11-Oct-18 09:59 35.150318 -118.017766 259 2432ft 9kts
11-Oct-18 10:00 35.149473 -118.021727 256 2443ft 13kts
11-Oct-18 10:01 35.148637 -118.026058 300 2451ft 6kts
11-Oct-18 10:02 35.148807 -118.026179 342 2451ft 0kts
11-Oct-18 10:03 35.148807 -118.026179 342 2451ft 0kts
11-Oct-18 10:04 35.148807 -118.026179 342 2451ft 0kts
11-Oct-18 10:05 35.148807 -118.026179 342 2451ft 0kts
11-Oct-18 10:06 35.148807 -118.026179 342 2451ft 0kts
11-Oct-18 10:07 35.148807 -118.026179 342 2451ft 0kts
11-Oct-18 10:08 35.151901 -118.013828 77 2577ft 127kts
11-Oct-18 10:09 35.169918 -118.019738 255 4856ft 164kts
11-Oct-18 10:10 35.138345 -118.051269 198 7730ft 155kts
11-Oct-18 10:11 35.104843 -118.082433 224 10281ft 173kts
11-Oct-18 10:12 35.068296 -118.128958 225 11963ft 209kts
11-Oct-18 10:13 35.022710 -118.187349 225 12014ft 256kts
11-Oct-18 10:14 34.972717 -118.251149 225 12013ft 262kts
11-Oct-18 10:15 34.922486 -118.315112 226 12009ft 262kts
11-Oct-18 10:16 34.873107 -118.377815 224 12013ft 256kts
11-Oct-18 10:17 34.819399 -118.434249 221 12025ft 254kts
11-Oct-18 10:18 34.765809 -118.490280 221 12038ft 254kts
11-Oct-18 10:19 34.712347 -118.546081 221 12050ft 254kts
11-Oct-18 10:20 34.650232 -118.578917 174 11519ft 250kts
11-Oct-18 10:21 34.596913 -118.529163 150 11030ft 236kts
11-Oct-18 10:22 34.539017 -118.492359 155 11025ft 241kts
11-Oct-18 10:23 34.478293 -118.456675 155 11025ft 244kts
11-Oct-18 10:24 34.417087 -118.420938 155 11032ft 245kts
11-Oct-18 10:25 34.356930 -118.385934 155 11005ft 242kts
11-Oct-18 10:26 34.297164 -118.351111 155 10994ft 240kts
11-Oct-18 10:27 34.237294 -118.316330 155 10984ft 239kts
11-Oct-18 10:28 34.177249 -118.281512 155 10975ft 239kts
11-Oct-18 10:29 34.117888 -118.247139 155 10970ft 237kts
11-Oct-18 10:30 34.061161 -118.214399 155 10967ft 217kts
11-Oct-18 10:31 34.008006 -118.183304 156 10969ft 212kts
11-Oct-18 10:32 33.953547 -118.166189 190 10740ft 210kts
11-Oct-18 10:33 33.896186 -118.179042 191 9845ft 209kts
11-Oct-18 10:34 33.840681 -118.191447 191 8905ft 200kts
11-Oct-18 10:35 33.786227 -118.203345 191 7905ft 200kts
11-Oct-18 10:36 33.731718 -118.215064 191 7002ft 195kts
11-Oct-18 10:37 33.688323 -118.193968 141 6993ft 175kts
11-Oct-18 10:38 33.649203 -118.155546 141 6994ft 186kts
11-Oct-18 10:39 33.612089 -118.112966 98 7002ft 188kts
11-Oct-18 10:40 33.638136 -118.057223 57 6304ft 207kts
11-Oct-18 10:41 33.669258 -117.997966 56 5508ft 212kts
11-Oct-18 10:42 33.700453 -117.944236 30 4998ft 161kts
11-Oct-18 10:43 33.737167 -117.920583 26 4274ft 150kts
11-Oct-18 10:44 33.771432 -117.899190 26 3373ft 129kts
11-Oct-18 10:45 33.791842 -117.863594 86 2540ft 145kts
11-Oct-18 10:46 33.772148 -117.825001 154 1871ft 141kts
11-Oct-18 10:47 33.734423 -117.831324 208 1204ft 137kts
11-Oct-18 10:48 33.703075 -117.851464 207 553ft 112kts
11-Oct-18 10:49 33.678490 -117.867035 206 60ft 83kts
11-Oct-18 10:50 33.674201 -117.870737 300 60ft 0kts
11-Oct-18 10:51 33.674201 -117.870737 300 60ft 0kts
11-Oct-18 10:52 33.674201 -117.870737 300 60ft 0kts
11-Oct-18 10:53 33.674201 -117.870737 300 60ft 0kts
11-Oct-18 10:54 33.674201 -117.870737 300 60ft 0kts
11-Oct-18 10:55 33.674201 -117.870737 300 60ft 0kts
11-Oct-18 10:56 33.674201 -117.870737 300 60ft 0kts
11-Oct-18 10:57 33.674201 -117.870737 300 60ft 0kts
11-Oct-18 10:58 33.674156 -117.872288 230 60ft 6kts
11-Oct-18 10:59 33.673934 -117.872344 166 60ft 0kts
11-Oct-18 11:00 33.673934 -117.872344 167 60ft 0kts
11-Oct-18 11:01 33.673934 -117.872344 167 60ft 0kts
11-Oct-18 11:02 33.673934 -117.872344 167 60ft 0kts
11-Oct-18 11:03 33.673934 -117.872344 167 60ft 0kts
11-Oct-18 11:04 33.673934 -117.872344 167 60ft 0kts

Navigation Log

Ident Type
Flight plan parsing failed, navigation log unavailable